createdAt,value
2022-12-23T00:00:45.879Z,35.70
2022-12-23T00:03:13.448Z,34.50
2022-12-23T00:05:41.479Z,39.90
2022-12-23T00:08:08.836Z,35.77
2022-12-23T00:10:40.192Z,37.60
2022-12-23T00:13:27.461Z,42.60
2022-12-23T00:16:09.168Z,37.03
2022-12-23T00:18:37.390Z,33.50
2022-12-23T00:21:11.003Z,33.30
2022-12-23T00:23:41.724Z,46.20
2022-12-23T00:26:18.465Z,44.27
2022-12-23T00:28:46.124Z,41.37
2022-12-23T00:31:14.189Z,40.33
2022-12-23T00:33:44.189Z,42.43
2022-12-23T00:36:13.075Z,33.67
2022-12-23T00:38:59.816Z,34.70
2022-12-23T00:41:45.647Z,31.43
2022-12-23T00:44:13.153Z,32.87
2022-12-23T00:46:40.366Z,33.53
2022-12-23T00:49:26.747Z,28.90
2022-12-23T00:51:53.987Z,33.60
2022-12-23T00:54:21.177Z,31.40
2022-12-23T00:56:48.376Z,30.97
2022-12-23T00:59:15.646Z,33.43
2022-12-23T01:02:01.499Z,31.27
2022-12-23T01:04:47.200Z,30.40
2022-12-23T01:07:14.577Z,27.37
2022-12-23T01:09:41.751Z,26.43
2022-12-23T01:12:09.429Z,33.80
2022-12-23T01:14:36.741Z,30.90
2022-12-23T01:17:05.506Z,27.43
2022-12-23T01:19:32.708Z,30.63
2022-12-23T01:21:59.881Z,37.77
2022-12-23T01:24:31.694Z,33.47
2022-12-23T01:27:00.657Z,31.90
2022-12-23T01:29:29.085Z,26.43
2022-12-23T01:31:56.482Z,31.93
2022-12-23T01:34:23.889Z,31.90
2022-12-23T01:36:51.503Z,31.83
2022-12-23T01:39:18.751Z,27.03
2022-12-23T01:42:04.308Z,30.30
2022-12-23T01:44:51.502Z,29.57
2022-12-23T01:47:44.861Z,33.27
2022-12-23T01:50:21.907Z,37.83
2022-12-23T01:53:02.957Z,32.53
2022-12-23T01:55:45.733Z,33.03
2022-12-23T01:58:27.647Z,29.40
2022-12-23T02:01:17.096Z,31.30
2022-12-23T02:03:46.316Z,31.43
2022-12-23T02:06:46.035Z,29.17
2022-12-23T02:09:22.181Z,25.60
2022-12-23T02:12:26.896Z,26.10
2022-12-23T02:15:40.214Z,30.63
2022-12-23T02:18:18.966Z,26.90
2022-12-23T02:20:52.164Z,29.90
2022-12-23T02:23:38.329Z,29.23
2022-12-23T02:26:27.463Z,21.40
2022-12-23T02:29:36.648Z,21.97
2022-12-23T02:32:13.714Z,27.80
2022-12-23T02:34:55.946Z,25.93
2022-12-23T02:37:44.607Z,20.70
2022-12-23T02:40:48.836Z,25.30
2022-12-23T02:43:30.061Z,25.20
2022-12-23T02:46:09.431Z,27.47
2022-12-23T02:49:04.107Z,21.30
2022-12-23T02:51:36.778Z,26.57
2022-12-23T02:54:09.014Z,23.63
2022-12-23T02:56:39.845Z,24.50
2022-12-23T02:59:15.844Z,26.00
2022-12-23T03:01:45.287Z,21.27
2022-12-23T03:04:12.561Z,22.43
2022-12-23T03:06:42.792Z,23.43
2022-12-23T03:09:15.053Z,23.47
2022-12-23T03:11:56.435Z,23.10
2022-12-23T03:14:48.721Z,20.37
2022-12-23T03:17:35.472Z,22.73
2022-12-23T03:20:21.018Z,22.70
2022-12-23T03:23:12.291Z,20.60
2022-12-23T03:26:03.313Z,22.93
2022-12-23T03:28:39.547Z,21.70
2022-12-23T03:31:11.937Z,19.20
2022-12-23T03:33:43.902Z,17.73
2022-12-23T03:36:18.455Z,18.47
2022-12-23T03:38:46.574Z,19.63
2022-12-23T03:41:19.260Z,22.10
2022-12-23T03:43:55.132Z,21.67
2022-12-23T03:46:47.584Z,23.97
2022-12-23T03:49:26.185Z,16.70
2022-12-23T03:51:59.617Z,17.83
2022-12-23T03:54:55.657Z,19.77
2022-12-23T03:57:29.638Z,18.20
2022-12-23T03:59:57.349Z,15.50
2022-12-23T04:02:40.259Z,14.93
2022-12-23T04:05:26.943Z,18.17
2022-12-23T04:08:12.595Z,17.70
2022-12-23T04:10:39.842Z,20.90
2022-12-23T04:13:07.492Z,18.90
2022-12-23T04:15:40.598Z,19.10
2022-12-23T04:18:09.574Z,23.90
2022-12-23T04:20:38.560Z,21.47
2022-12-23T04:23:06.161Z,32.87
2022-12-23T04:25:33.362Z,29.67
2022-12-23T04:28:00.741Z,41.33
2022-12-23T04:30:33.521Z,38.67
2022-12-23T04:33:02.770Z,39.77
2022-12-23T04:35:30.619Z,42.30
2022-12-23T04:37:57.873Z,36.67
2022-12-23T04:40:25.093Z,36.50
2022-12-23T04:42:52.356Z,36.90
2022-12-23T04:45:19.734Z,38.13
2022-12-23T04:47:47.014Z,42.33
2022-12-23T04:50:16.251Z,38.93
2022-12-23T04:52:44.778Z,41.53
2022-12-23T04:55:12.582Z,48.27
2022-12-23T04:57:40.231Z,43.70
2022-12-23T05:00:08.212Z,41.53
2022-12-23T05:02:35.537Z,44.70
2022-12-23T05:05:03.253Z,38.67
2022-12-23T05:07:30.601Z,45.30
2022-12-23T05:10:02.143Z,37.33
2022-12-23T05:12:30.822Z,35.97
2022-12-23T05:14:57.961Z,38.93
2022-12-23T05:17:26.166Z,40.90
2022-12-23T05:19:53.328Z,42.27
2022-12-23T05:22:21.588Z,40.00
2022-12-23T05:24:48.873Z,47.27
2022-12-23T05:27:16.103Z,43.53
2022-12-23T05:29:43.391Z,48.10
2022-12-23T05:32:10.697Z,50.63
2022-12-23T05:34:37.961Z,48.17
2022-12-23T05:37:05.301Z,44.17
2022-12-23T05:39:32.468Z,43.23
2022-12-23T05:41:59.708Z,39.47
2022-12-23T05:44:26.926Z,44.93
2022-12-23T05:46:54.319Z,42.57
2022-12-23T05:49:22.636Z,49.70
2022-12-23T05:51:49.863Z,52.57
2022-12-23T05:54:17.009Z,49.23
2022-12-23T05:56:44.279Z,43.73
2022-12-23T05:59:11.569Z,52.97
2022-12-23T06:01:38.979Z,43.03
2022-12-23T06:04:06.408Z,46.73
2022-12-23T06:06:33.775Z,41.60
2022-12-23T06:09:01.245Z,43.10
2022-12-23T06:11:29.000Z,39.77
2022-12-23T06:13:56.312Z,40.37
2022-12-23T06:16:23.925Z,41.73
2022-12-23T06:18:56.016Z,40.43
2022-12-23T06:21:23.132Z,42.40
2022-12-23T06:23:50.301Z,50.17
2022-12-23T06:26:17.596Z,46.97
2022-12-23T06:28:44.754Z,44.17
2022-12-23T06:31:12.022Z,51.13
2022-12-23T06:33:39.211Z,56.20
2022-12-23T06:36:07.672Z,53.33
2022-12-23T06:38:35.238Z,65.73
2022-12-23T06:41:02.467Z,68.93
2022-12-23T06:43:29.751Z,76.77
2022-12-23T06:45:57.021Z,58.67
2022-12-23T06:48:24.149Z,75.13
2022-12-23T06:50:53.168Z,88.73
2022-12-23T06:53:20.322Z,65.30
2022-12-23T06:55:47.609Z,73.77
2022-12-23T06:58:16.040Z,77.87
2022-12-23T07:00:43.295Z,64.10
2022-12-23T07:03:10.824Z,68.30
2022-12-23T07:05:38.291Z,59.13
2022-12-23T07:08:06.252Z,62.93
2022-12-23T07:10:34.596Z,65.40
2022-12-23T07:13:02.439Z,43.70
2022-12-23T07:15:29.646Z,88.23
2022-12-23T07:17:56.821Z,79.00
2022-12-23T07:20:24.045Z,70.23
2022-12-23T07:22:53.903Z,57.17
2022-12-23T07:25:21.739Z,58.27
2022-12-23T07:27:54.355Z,64.27
2022-12-23T07:30:22.667Z,57.97
2022-12-23T07:32:51.001Z,51.87
2022-12-23T07:35:18.892Z,57.27
2022-12-23T07:37:46.165Z,47.73
2022-12-23T07:40:13.625Z,52.10
2022-12-23T07:42:46.071Z,45.27
2022-12-23T07:45:13.862Z,45.03
2022-12-23T07:47:41.119Z,45.27
2022-12-23T07:50:08.895Z,48.57
2022-12-23T07:52:36.338Z,49.40
2022-12-23T07:55:03.899Z,47.47
2022-12-23T07:57:37.804Z,41.63
2022-12-23T08:00:18.924Z,41.90
2022-12-23T08:02:49.512Z,44.77
2022-12-23T08:05:17.009Z,41.60
2022-12-23T08:07:45.415Z,44.70
2022-12-23T08:10:13.581Z,42.03
2022-12-23T08:12:40.712Z,37.83
2022-12-23T08:15:08.840Z,44.57
2022-12-23T08:17:36.075Z,40.20
2022-12-23T08:20:03.464Z,43.77
2022-12-23T08:22:32.047Z,44.23
2022-12-23T08:24:59.999Z,45.23
2022-12-23T08:27:27.220Z,42.43
2022-12-23T08:29:54.617Z,40.63
2022-12-23T08:32:21.817Z,41.03
2022-12-23T08:34:48.935Z,44.67
2022-12-23T08:37:16.848Z,64.93
2022-12-23T08:39:44.190Z,45.90
2022-12-23T08:42:11.339Z,40.83
2022-12-23T08:44:39.539Z,40.77
2022-12-23T08:47:06.830Z,35.53
2022-12-23T08:49:34.157Z,40.13
2022-12-23T08:52:01.699Z,39.27
2022-12-23T08:54:29.595Z,43.97
2022-12-23T08:56:56.849Z,36.33
2022-12-23T08:59:24.038Z,46.93
2022-12-23T09:01:51.476Z,39.73
2022-12-23T09:04:18.763Z,45.67
2022-12-23T09:06:45.989Z,51.77
2022-12-23T09:09:15.711Z,50.17
2022-12-23T09:11:43.839Z,45.10
2022-12-23T09:14:12.025Z,44.30
2022-12-23T09:16:39.876Z,36.73
2022-12-23T09:19:08.041Z,51.83
2022-12-23T09:21:35.361Z,48.20
2022-12-23T09:24:02.554Z,43.70
2022-12-23T09:26:32.141Z,41.80
2022-12-23T09:28:59.949Z,44.00
2022-12-23T09:31:34.086Z,39.30
2022-12-23T09:34:03.670Z,33.50
2022-12-23T09:36:30.756Z,31.97
2022-12-23T09:38:59.077Z,34.37
2022-12-23T09:41:53.653Z,35.97
2022-12-23T09:44:37.111Z,37.70
2022-12-23T09:47:09.956Z,35.17
2022-12-23T09:49:45.410Z,40.43
2022-12-23T09:52:16.004Z,36.60
2022-12-23T09:54:48.661Z,38.10
2022-12-23T09:57:24.932Z,38.10
2022-12-23T10:00:10.725Z,36.17
2022-12-23T10:02:59.889Z,54.50
2022-12-23T10:05:37.020Z,40.17
2022-12-23T10:08:26.528Z,38.83
2022-12-23T10:11:06.527Z,37.40
2022-12-23T10:13:43.867Z,40.37
2022-12-23T10:16:20.377Z,33.83
2022-12-23T10:19:14.134Z,36.67
2022-12-23T10:22:06.248Z,39.37
2022-12-23T10:24:44.648Z,36.17
2022-12-23T10:27:34.856Z,32.47
2022-12-23T10:30:51.512Z,37.03
2022-12-23T10:33:28.383Z,33.90
2022-12-23T10:36:05.528Z,33.30
2022-12-23T10:38:42.274Z,33.63
2022-12-23T10:41:26.183Z,33.97
2022-12-23T10:43:56.507Z,32.93
2022-12-23T10:46:46.410Z,33.90
2022-12-23T10:49:13.846Z,31.87
2022-12-23T10:52:01.767Z,33.23
2022-12-23T10:54:33.465Z,30.73
2022-12-23T10:57:01.960Z,31.47
2022-12-23T10:59:34.672Z,28.87
2022-12-23T11:02:13.021Z,29.03
2022-12-23T11:04:43.722Z,28.83
2022-12-23T11:07:43.327Z,25.43
2022-12-23T11:10:18.910Z,29.70
2022-12-23T11:12:50.013Z,24.83
2022-12-23T11:15:41.640Z,31.97
2022-12-23T11:18:11.926Z,27.03
2022-12-23T11:20:43.746Z,30.17
2022-12-23T11:23:40.542Z,29.03
2022-12-23T11:26:13.622Z,32.20
2022-12-23T11:28:52.691Z,34.20
2022-12-23T11:31:35.384Z,33.63
2022-12-23T11:34:14.881Z,33.93
2022-12-23T11:36:43.251Z,34.60
2022-12-23T11:39:10.486Z,31.87
2022-12-23T11:41:39.271Z,30.97
2022-12-23T11:44:20.708Z,32.10
2022-12-23T11:46:49.172Z,34.23
2022-12-23T11:49:24.071Z,36.00
2022-12-23T11:52:06.024Z,34.03
2022-12-23T11:54:34.641Z,29.67
2022-12-23T11:57:08.761Z,32.53
2022-12-23T11:59:42.886Z,31.13
2022-12-23T12:02:26.176Z,33.57
2022-12-23T12:05:31.171Z,30.37
2022-12-23T12:08:09.651Z,45.63
2022-12-23T12:10:39.413Z,44.80
2022-12-23T12:13:23.180Z,50.00
2022-12-23T12:16:01.101Z,34.07
2022-12-23T12:18:29.647Z,27.17
2022-12-23T12:21:05.804Z,30.27
2022-12-23T12:23:50.757Z,34.90
2022-12-23T12:26:37.930Z,31.97
2022-12-23T12:29:20.985Z,38.40
2022-12-23T12:31:51.535Z,39.90
2022-12-23T12:34:38.859Z,39.37
2022-12-23T12:37:24.672Z,37.60
2022-12-23T12:40:13.034Z,45.63
2022-12-23T12:42:49.103Z,31.57
2022-12-23T12:45:22.487Z,31.37
2022-12-23T12:48:28.388Z,31.47
2022-12-23T12:50:56.061Z,34.80
2022-12-23T12:53:24.909Z,34.40
2022-12-23T12:55:59.895Z,31.33
2022-12-23T12:58:27.270Z,33.97
2022-12-23T13:01:22.522Z,37.13
2022-12-23T13:04:14.598Z,34.83
2022-12-23T13:07:11.755Z,32.57
2022-12-23T13:10:12.302Z,38.43
2022-12-23T13:13:20.660Z,35.77
2022-12-23T13:16:08.166Z,38.20
2022-12-23T13:18:57.536Z,40.43
2022-12-23T13:21:33.733Z,42.33
2022-12-23T13:24:18.934Z,43.10
2022-12-23T13:26:55.344Z,38.83
2022-12-23T13:29:22.655Z,40.60
2022-12-23T13:32:22.115Z,45.13
2022-12-23T13:35:15.583Z,49.30
2022-12-23T13:37:50.380Z,52.67
2022-12-23T13:40:17.657Z,52.07
2022-12-23T13:42:52.740Z,53.70
2022-12-23T13:45:21.740Z,52.60
2022-12-23T13:48:06.893Z,52.83
2022-12-23T13:50:46.233Z,56.20
2022-12-23T13:53:25.441Z,58.37
2022-12-23T13:56:03.800Z,58.87
2022-12-23T13:58:32.529Z,64.80
2022-12-23T14:01:22.392Z,51.83
2022-12-23T14:03:51.113Z,59.47
2022-12-23T14:06:24.362Z,57.27
2022-12-23T14:08:54.262Z,54.60
2022-12-23T14:11:28.816Z,58.30
2022-12-23T14:14:00.632Z,84.40
2022-12-23T14:16:54.453Z,58.50
2022-12-23T14:19:43.575Z,52.73
2022-12-23T14:22:22.653Z,54.47
2022-12-23T14:25:05.173Z,58.90
2022-12-23T14:27:50.989Z,56.33
2022-12-23T14:30:24.022Z,47.70
2022-12-23T14:32:58.151Z,52.20
2022-12-23T14:35:48.986Z,83.33
2022-12-23T14:38:16.096Z,49.07
2022-12-23T14:40:43.198Z,132.70
2022-12-23T14:43:22.961Z,117.87
2022-12-23T14:45:51.664Z,90.37
2022-12-23T14:48:34.344Z,141.50
2022-12-23T14:51:09.158Z,84.20
2022-12-23T14:53:57.472Z,304.13
2022-12-23T14:56:39.886Z,121.47
2022-12-23T14:59:28.297Z,84.77
2022-12-23T15:02:00.958Z,86.50
2022-12-23T15:04:28.578Z,115.57
2022-12-23T15:07:18.293Z,69.43
2022-12-23T15:10:01.148Z,147.40
2022-12-23T15:12:35.141Z,56.10
2022-12-23T15:15:28.079Z,91.97
2022-12-23T15:18:02.817Z,72.20
2022-12-23T15:20:30.594Z,57.83
2022-12-23T15:23:02.281Z,72.50
2022-12-23T15:25:32.699Z,76.03
2022-12-23T15:28:02.958Z,73.50
2022-12-23T15:30:35.222Z,101.57
2022-12-23T15:33:34.896Z,86.10
2022-12-23T15:35:56.402Z,78.20
2022-12-23T15:38:29.352Z,67.37
2022-12-23T15:41:18.919Z,66.50
2022-12-23T15:43:46.207Z,82.53
2022-12-23T15:46:28.984Z,76.10
2022-12-23T15:48:58.913Z,66.07
2022-12-23T15:52:07.011Z,60.43
2022-12-23T15:54:30.438Z,46.60
2022-12-23T15:57:00.485Z,49.77
2022-12-23T15:59:48.976Z,55.23
2022-12-23T16:03:00.546Z,65.77
2022-12-23T16:05:32.035Z,124.27
2022-12-23T16:08:32.508Z,139.33
2022-12-23T16:11:20.806Z,174.97
2022-12-23T16:14:00.245Z,326.60
2022-12-23T16:16:43.248Z,416.00
2022-12-23T16:19:49.615Z,463.07
2022-12-23T16:22:33.347Z,236.13
2022-12-23T16:25:20.071Z,114.80
2022-12-23T16:27:56.845Z,265.27
2022-12-23T16:30:46.844Z,295.20
2022-12-23T16:33:19.892Z,107.07
2022-12-23T16:35:47.176Z,176.77
2022-12-23T16:38:17.536Z,227.00
2022-12-23T16:40:50.571Z,83.13
2022-12-23T16:43:20.608Z,138.57
2022-12-23T16:45:52.855Z,180.97
2022-12-23T16:48:29.999Z,112.37
2022-12-23T16:50:58.082Z,68.97
2022-12-23T16:53:25.336Z,195.43
2022-12-23T16:55:59.985Z,80.20
2022-12-23T16:58:28.156Z,52.80
2022-12-23T17:00:55.983Z,94.33
2022-12-23T17:03:23.497Z,48.37
2022-12-23T17:05:50.735Z,42.47
2022-12-23T17:08:18.006Z,55.90
2022-12-23T17:10:45.956Z,39.57
2022-12-23T17:13:16.700Z,51.50
2022-12-23T17:15:44.267Z,63.60
2022-12-23T17:18:17.603Z,64.17
2022-12-23T17:20:49.454Z,58.37
2022-12-23T17:23:27.310Z,73.23
2022-12-23T17:25:54.854Z,58.33
2022-12-23T17:28:22.989Z,55.97
2022-12-23T17:30:55.829Z,56.60
2022-12-23T17:33:28.196Z,67.07
2022-12-23T17:35:56.061Z,60.37
2022-12-23T17:38:24.150Z,50.27
2022-12-23T17:40:51.914Z,59.50
2022-12-23T17:43:19.453Z,54.43
2022-12-23T17:45:47.366Z,75.33
2022-12-23T17:48:20.784Z,55.57
2022-12-23T17:50:50.852Z,47.03
2022-12-23T17:53:19.647Z,54.83
2022-12-23T17:55:47.203Z,41.37
2022-12-23T17:58:14.506Z,46.43
2022-12-23T18:00:42.313Z,42.60
2022-12-23T18:03:23.507Z,45.13
2022-12-23T18:05:55.637Z,40.20
2022-12-23T18:08:28.590Z,45.10
2022-12-23T18:10:57.246Z,110.20
2022-12-23T18:13:24.539Z,90.07
2022-12-23T18:15:52.777Z,91.13
2022-12-23T18:18:35.604Z,78.43
2022-12-23T18:21:09.876Z,153.27
2022-12-23T18:23:37.643Z,125.87
2022-12-23T18:26:04.877Z,64.67
2022-12-23T18:28:32.170Z,66.90
2022-12-23T18:30:59.401Z,61.33
2022-12-23T18:33:28.993Z,65.37
2022-12-23T18:35:57.034Z,62.83
2022-12-23T18:38:24.335Z,53.97
2022-12-23T18:40:54.065Z,64.17
2022-12-23T18:43:24.102Z,75.97
2022-12-23T18:45:54.079Z,72.27
2022-12-23T18:48:22.173Z,62.10
2022-12-23T18:50:49.329Z,90.83
2022-12-23T18:53:23.843Z,149.37
2022-12-23T18:55:53.820Z,86.47
2022-12-23T18:58:21.938Z,67.93
2022-12-23T19:00:50.628Z,76.77
2022-12-23T19:03:28.162Z,63.37
2022-12-23T19:05:56.633Z,76.23
2022-12-23T19:08:27.530Z,68.37
2022-12-23T19:10:55.927Z,61.17
2022-12-23T19:13:23.418Z,61.47
2022-12-23T19:15:50.834Z,64.93
2022-12-23T19:18:20.853Z,67.50
2022-12-23T19:20:49.154Z,77.43
2022-12-23T19:23:16.543Z,67.77
2022-12-23T19:25:54.582Z,80.50
2022-12-23T19:28:23.035Z,77.67
2022-12-23T19:30:51.277Z,60.23
2022-12-23T19:33:18.576Z,66.73
2022-12-23T19:35:45.811Z,50.60
2022-12-23T19:38:13.102Z,60.37
2022-12-23T19:40:41.142Z,64.50
2022-12-23T19:43:09.353Z,65.23
2022-12-23T19:45:36.631Z,92.53
2022-12-23T19:48:03.926Z,72.53
2022-12-23T19:50:31.157Z,92.60
2022-12-23T19:52:58.413Z,79.83
2022-12-23T19:55:25.620Z,75.87
2022-12-23T19:57:52.716Z,59.93
2022-12-23T20:00:20.038Z,69.17
2022-12-23T20:02:47.188Z,72.83
2022-12-23T20:05:14.597Z,64.30
2022-12-23T20:07:41.854Z,56.90
2022-12-23T20:10:09.827Z,57.37
2022-12-23T20:12:37.230Z,62.37
2022-12-23T20:15:04.798Z,64.70
2022-12-23T20:17:32.004Z,62.93
2022-12-23T20:19:59.206Z,65.27
2022-12-23T20:22:26.373Z,70.10
2022-12-23T20:24:53.737Z,57.93
2022-12-23T20:27:26.043Z,64.40
2022-12-23T20:29:55.136Z,57.67
2022-12-23T20:32:22.209Z,60.73
2022-12-23T20:34:50.336Z,68.80
2022-12-23T20:37:18.604Z,59.87
2022-12-23T20:39:46.392Z,51.60
2022-12-23T20:42:13.573Z,59.00
2022-12-23T20:44:40.853Z,59.70
2022-12-23T20:47:08.363Z,57.00
2022-12-23T20:49:36.044Z,59.10
2022-12-23T20:52:03.955Z,70.77
2022-12-23T20:54:33.767Z,77.67
2022-12-23T20:57:02.774Z,72.17
2022-12-23T20:59:30.036Z,66.80
2022-12-23T21:01:59.465Z,68.37
2022-12-23T21:04:27.596Z,62.93
2022-12-23T21:06:55.397Z,66.00
2022-12-23T21:09:22.668Z,56.63
2022-12-23T21:11:51.211Z,57.87
2022-12-23T21:14:19.320Z,63.77
2022-12-23T21:16:46.774Z,62.83
2022-12-23T21:19:24.127Z,64.87
2022-12-23T21:21:54.090Z,69.10
2022-12-23T21:24:24.957Z,56.57
2022-12-23T21:26:56.748Z,59.37
2022-12-23T21:29:25.965Z,62.83
2022-12-23T21:31:53.307Z,58.10
2022-12-23T21:34:20.668Z,61.67
2022-12-23T21:36:47.968Z,71.07
2022-12-23T21:39:17.033Z,71.03
2022-12-23T21:41:44.425Z,66.13
2022-12-23T21:44:15.013Z,90.47
2022-12-23T21:46:42.645Z,133.23
2022-12-23T21:49:10.640Z,67.77
2022-12-23T21:51:40.736Z,65.03
2022-12-23T21:54:10.913Z,68.57
2022-12-23T21:56:42.111Z,58.60
2022-12-23T21:59:13.513Z,72.53
2022-12-23T22:01:42.047Z,73.57
2022-12-23T22:04:09.333Z,67.47
2022-12-23T22:06:40.590Z,74.70
2022-12-23T22:09:08.964Z,67.10
2022-12-23T22:11:37.496Z,61.43
2022-12-23T22:14:06.878Z,54.17
2022-12-23T22:16:35.563Z,56.13
2022-12-23T22:19:06.361Z,59.47
2022-12-23T22:21:34.775Z,58.20
2022-12-23T22:24:03.103Z,62.33
2022-12-23T22:26:33.092Z,65.73
2022-12-23T22:29:03.950Z,60.37
2022-12-23T22:31:47.199Z,61.83
2022-12-23T22:34:20.332Z,74.40
2022-12-23T22:36:48.754Z,66.43
2022-12-23T22:39:20.965Z,61.27
2022-12-23T22:41:50.255Z,56.07
2022-12-23T22:44:17.612Z,64.17
2022-12-23T22:46:45.218Z,66.33
2022-12-23T22:49:14.035Z,56.00
2022-12-23T22:51:42.988Z,57.80
2022-12-23T22:54:10.521Z,59.70
2022-12-23T22:56:37.811Z,60.47
2022-12-23T22:59:05.493Z,54.80
2022-12-23T23:01:35.903Z,52.53
2022-12-23T23:04:05.330Z,59.47
2022-12-23T23:06:37.996Z,52.80
2022-12-23T23:09:18.622Z,51.77
2022-12-23T23:11:47.103Z,50.00
2022-12-23T23:14:14.418Z,52.40
2022-12-23T23:16:42.817Z,55.17
2022-12-23T23:19:10.932Z,45.47
2022-12-23T23:21:38.191Z,57.23
2022-12-23T23:24:06.074Z,51.07
2022-12-23T23:26:33.314Z,48.33
2022-12-23T23:29:00.652Z,47.47
2022-12-23T23:31:44.517Z,45.83
2022-12-23T23:34:13.709Z,52.07
2022-12-23T23:36:42.299Z,50.53
2022-12-23T23:39:11.512Z,48.47
2022-12-23T23:41:38.783Z,44.50
2022-12-23T23:44:06.103Z,44.43
2022-12-23T23:46:34.402Z,42.57
2022-12-23T23:49:01.880Z,42.53
2022-12-23T23:51:29.257Z,43.67
2022-12-23T23:53:56.585Z,43.27
2022-12-23T23:56:26.217Z,41.70
2022-12-23T23:58:55.049Z,40.80
